createdAt,value
2019-06-08T00:01:28.293Z,15.83
2019-06-08T00:03:58.389Z,15.44
2019-06-08T00:06:28.416Z,15.44
2019-06-08T00:08:58.324Z,15.56
2019-06-08T00:11:28.185Z,15.58
2019-06-08T00:13:58.061Z,15.67
2019-06-08T00:16:28.063Z,15.60
2019-06-08T00:18:58.183Z,15.60
2019-06-08T00:21:28.186Z,15.45
2019-06-08T00:23:59.386Z,15.32
2019-06-08T00:26:29.388Z,15.34
2019-06-08T00:28:59.390Z,15.28
2019-06-08T00:31:29.396Z,15.22
2019-06-08T00:33:59.412Z,14.91
2019-06-08T00:36:29.394Z,15.04
2019-06-08T00:38:59.396Z,14.96
2019-06-08T00:41:29.413Z,14.90
2019-06-08T00:43:59.408Z,14.69
2019-06-08T00:46:29.427Z,14.67
2019-06-08T00:48:59.423Z,14.75
2019-06-08T00:51:29.826Z,14.66
2019-06-08T00:53:59.774Z,14.74
2019-06-08T00:56:30.035Z,14.60
2019-06-08T00:59:00.258Z,14.69
2019-06-08T01:01:30.917Z,14.74
2019-06-08T01:04:00.976Z,14.79
2019-06-08T01:06:31.072Z,14.70
2019-06-08T01:09:00.975Z,14.63
2019-06-08T01:11:31.140Z,14.45
2019-06-08T01:14:01.101Z,14.39
2019-06-08T01:16:31.133Z,14.52
2019-06-08T01:19:01.109Z,14.57
2019-06-08T01:21:31.128Z,14.56
2019-06-08T01:24:00.987Z,14.46
2019-06-08T01:26:31.090Z,14.42
2019-06-08T01:29:01.117Z,14.34
2019-06-08T01:31:31.141Z,14.36
2019-06-08T01:34:01.022Z,14.37
2019-06-08T01:36:31.292Z,14.38
2019-06-08T01:39:01.358Z,14.41
2019-06-08T01:41:31.714Z,14.36
2019-06-08T01:44:01.730Z,14.40
2019-06-08T01:46:32.405Z,14.42
2019-06-08T01:49:02.323Z,14.53
2019-06-08T01:51:32.748Z,14.44
2019-06-08T01:54:02.838Z,14.37
2019-06-08T01:56:33.387Z,14.35
2019-06-08T01:59:03.661Z,14.45
2019-06-08T02:01:34.163Z,14.47
2019-06-08T02:04:04.623Z,14.42
2019-06-08T02:06:34.772Z,14.43
2019-06-08T02:09:07.619Z,14.39
2019-06-08T02:11:37.861Z,14.45
2019-06-08T02:14:07.860Z,14.43
2019-06-08T02:16:37.870Z,14.15
2019-06-08T02:19:07.878Z,14.38
2019-06-08T02:21:39.022Z,14.29
2019-06-08T02:24:08.961Z,14.42
2019-06-08T02:26:39.720Z,14.24
2019-06-08T02:29:09.790Z,14.20
2019-06-08T02:31:39.692Z,14.30
2019-06-08T02:34:09.696Z,14.36
2019-06-08T02:36:40.803Z,14.34
2019-06-08T02:39:11.147Z,14.44
2019-06-08T02:41:41.005Z,14.48
2019-06-08T02:44:11.147Z,14.42
2019-06-08T02:46:41.015Z,14.53
2019-06-08T02:49:10.907Z,14.45
2019-06-08T02:51:41.344Z,14.45
2019-06-08T02:54:13.185Z,14.43
2019-06-08T02:56:44.258Z,14.35
2019-06-08T02:59:16.029Z,14.40
2019-06-08T03:01:48.587Z,14.21
2019-06-08T03:04:19.998Z,14.24
2019-06-08T03:06:52.337Z,14.30
2019-06-08T03:09:23.834Z,14.30
2019-06-08T03:11:56.656Z,14.21
2019-06-08T03:14:31.059Z,14.29
2019-06-08T03:17:01.641Z,14.26
2019-06-08T03:19:33.344Z,14.07
2019-06-08T03:22:03.921Z,14.16
2019-06-08T03:24:34.871Z,14.15
2019-06-08T03:27:06.263Z,14.13
2019-06-08T03:29:37.626Z,14.18
2019-06-08T03:32:09.148Z,14.17
2019-06-08T03:34:46.023Z,14.19
2019-06-08T03:37:11.421Z,14.21
2019-06-08T03:39:43.093Z,14.25
2019-06-08T03:42:13.540Z,14.27
2019-06-08T03:44:45.118Z,14.20
2019-06-08T03:47:15.516Z,14.01
2019-06-08T03:49:54.923Z,14.13
2019-06-08T03:52:18.585Z,14.00
2019-06-08T03:54:49.188Z,14.16
2019-06-08T03:57:19.591Z,14.11
2019-06-08T03:59:50.149Z,14.12
2019-06-08T04:02:21.114Z,13.98
2019-06-08T04:04:52.086Z,14.00
2019-06-08T04:07:22.917Z,14.06
2019-06-08T04:09:53.397Z,14.11
2019-06-08T04:12:23.685Z,13.95
2019-06-08T04:14:54.239Z,14.13
2019-06-08T04:17:24.755Z,14.21
2019-06-08T04:20:09.746Z,13.99
2019-06-08T04:22:27.381Z,14.20
2019-06-08T04:24:57.850Z,14.26
2019-06-08T04:27:28.572Z,14.30
2019-06-08T04:29:58.982Z,14.27
2019-06-08T04:32:29.655Z,14.22
2019-06-08T04:35:00.392Z,13.95
2019-06-08T04:37:31.471Z,14.04
2019-06-08T04:40:01.944Z,14.03
2019-06-08T04:42:32.428Z,14.00
2019-06-08T04:45:03.311Z,14.02
2019-06-08T04:47:33.879Z,14.18
2019-06-08T04:50:21.720Z,14.22
2019-06-08T04:52:38.887Z,14.30
2019-06-08T04:55:10.470Z,14.37
2019-06-08T04:57:41.922Z,14.43
2019-06-08T05:00:13.715Z,14.35
2019-06-08T05:02:46.228Z,14.39
2019-06-08T05:05:17.073Z,14.42
2019-06-08T05:07:48.522Z,14.49
2019-06-08T05:10:20.243Z,14.36
2019-06-08T05:12:51.278Z,14.47
2019-06-08T05:15:22.306Z,14.64
2019-06-08T05:17:52.878Z,14.56
2019-06-08T05:20:37.559Z,14.54
2019-06-08T05:22:55.311Z,14.41
2019-06-08T05:25:25.982Z,14.50
2019-06-08T05:27:56.809Z,14.60
2019-06-08T05:30:28.233Z,14.51
2019-06-08T05:32:59.095Z,14.52
2019-06-08T05:35:29.814Z,14.62
2019-06-08T05:38:00.666Z,14.71
2019-06-08T05:40:32.241Z,14.89
2019-06-08T05:43:02.848Z,15.19
2019-06-08T05:45:33.354Z,15.42
2019-06-08T05:48:04.165Z,15.74
2019-06-08T05:50:34.886Z,15.93
2019-06-08T05:53:05.863Z,15.79
2019-06-08T05:55:36.425Z,15.92
2019-06-08T05:58:07.321Z,15.86
2019-06-08T06:00:37.900Z,16.05
2019-06-08T06:03:08.836Z,15.77
2019-06-08T06:05:52.156Z,16.02
2019-06-08T06:08:22.923Z,16.46
2019-06-08T06:10:53.523Z,16.60
2019-06-08T06:13:24.855Z,17.01
2019-06-08T06:15:55.467Z,16.80
2019-06-08T06:18:26.053Z,16.36
2019-06-08T06:21:09.897Z,15.99
2019-06-08T06:23:29.053Z,16.21
2019-06-08T06:25:59.661Z,16.38
2019-06-08T06:28:30.453Z,16.62
2019-06-08T06:31:01.458Z,16.71
2019-06-08T06:33:32.269Z,17.22
2019-06-08T06:36:02.974Z,16.94
2019-06-08T06:38:33.595Z,16.86
2019-06-08T06:41:04.325Z,16.64
2019-06-08T06:43:35.317Z,16.54
2019-06-08T06:46:05.995Z,16.56
2019-06-08T06:48:36.393Z,16.37
2019-06-08T06:51:07.228Z,16.87
2019-06-08T06:53:37.613Z,16.92
2019-06-08T06:56:08.031Z,16.99
2019-06-08T06:58:42.985Z,16.77
2019-06-08T07:01:13.911Z,16.50
2019-06-08T07:03:46.059Z,16.27
2019-06-08T07:06:16.677Z,16.45
2019-06-08T07:08:48.241Z,16.28
2019-06-08T07:11:19.330Z,16.37
2019-06-08T07:13:50.842Z,16.04
2019-06-08T07:16:21.490Z,16.34
2019-06-08T07:18:52.674Z,16.40
2019-06-08T07:21:23.091Z,16.16
2019-06-08T07:23:55.904Z,16.26
2019-06-08T07:26:26.174Z,15.86
2019-06-08T07:28:56.892Z,16.11
2019-06-08T07:31:27.497Z,16.02
2019-06-08T07:33:59.695Z,16.15
2019-06-08T07:36:30.871Z,16.00
2019-06-08T07:39:01.237Z,15.76
2019-06-08T07:41:31.954Z,15.89
2019-06-08T07:44:02.545Z,16.11
2019-06-08T07:46:32.821Z,16.20
2019-06-08T07:49:04.038Z,15.96
2019-06-08T07:51:34.706Z,16.03
2019-06-08T07:54:05.233Z,16.06
2019-06-08T07:56:35.847Z,16.24
2019-06-08T07:59:06.192Z,16.30
2019-06-08T08:01:36.790Z,16.43
2019-06-08T08:04:07.775Z,16.27
2019-06-08T08:06:38.504Z,16.44
2019-06-08T08:09:09.892Z,16.34
2019-06-08T08:11:40.421Z,16.38
2019-06-08T08:14:11.209Z,16.23
2019-06-08T08:16:41.856Z,16.44
2019-06-08T08:19:12.540Z,16.60
2019-06-08T08:21:43.138Z,16.52
2019-06-08T08:24:14.032Z,16.65
2019-06-08T08:26:44.576Z,16.64
2019-06-08T08:29:17.673Z,16.64
2019-06-08T08:31:49.114Z,16.92
2019-06-08T08:34:20.032Z,16.90
2019-06-08T08:36:51.093Z,17.06
2019-06-08T08:39:22.436Z,16.95
2019-06-08T08:41:56.844Z,16.81
2019-06-08T08:44:25.677Z,16.89
2019-06-08T08:46:57.001Z,16.58
2019-06-08T08:49:28.186Z,16.60
2019-06-08T08:52:00.575Z,16.66
2019-06-08T08:54:31.392Z,16.67
2019-06-08T08:57:05.033Z,16.85
2019-06-08T08:59:34.649Z,16.92
2019-06-08T09:02:10.927Z,17.06
2019-06-08T09:04:38.171Z,16.99
2019-06-08T09:07:10.617Z,17.18
2019-06-08T09:09:41.360Z,17.51
2019-06-08T09:12:11.843Z,17.54
2019-06-08T09:14:42.705Z,17.66
2019-06-08T09:17:13.456Z,17.74
2019-06-08T09:19:44.311Z,17.73
2019-06-08T09:22:14.734Z,17.93
2019-06-08T09:24:45.469Z,17.95
2019-06-08T09:27:17.877Z,18.20
2019-06-08T09:29:48.694Z,18.46
2019-06-08T09:32:19.474Z,18.54
2019-06-08T09:34:50.257Z,18.06
2019-06-08T09:37:20.799Z,18.07
2019-06-08T09:39:51.395Z,18.58
2019-06-08T09:42:22.544Z,18.35
2019-06-08T09:44:55.100Z,18.81
2019-06-08T09:47:25.190Z,19.08
2019-06-08T09:49:58.798Z,19.11
2019-06-08T09:52:28.243Z,19.27
2019-06-08T09:55:02.312Z,19.27
2019-06-08T09:57:31.322Z,19.50
2019-06-08T10:00:08.675Z,19.33
2019-06-08T10:02:34.804Z,19.49
2019-06-08T10:05:06.387Z,19.36
2019-06-08T10:07:38.879Z,19.37
2019-06-08T10:10:10.445Z,19.18
2019-06-08T10:12:41.378Z,19.39
2019-06-08T10:15:12.797Z,19.01
2019-06-08T10:17:43.267Z,18.78
2019-06-08T10:20:14.199Z,19.12
2019-06-08T10:22:44.656Z,19.40
2019-06-08T10:25:15.810Z,19.40
2019-06-08T10:27:46.496Z,19.89
2019-06-08T10:30:17.583Z,19.92
2019-06-08T10:32:50.762Z,20.15
2019-06-08T10:35:21.074Z,20.07
2019-06-08T10:37:55.077Z,19.96
2019-06-08T10:40:24.155Z,19.73
2019-06-08T10:42:54.770Z,19.82
2019-06-08T10:45:25.618Z,19.89
2019-06-08T10:47:59.341Z,19.84
2019-06-08T10:50:30.271Z,19.83
2019-06-08T10:53:03.650Z,19.56
2019-06-08T10:55:33.428Z,19.67
2019-06-08T10:58:04.522Z,19.58
2019-06-08T11:00:35.586Z,19.31
2019-06-08T11:03:09.730Z,18.58
2019-06-08T11:05:38.086Z,19.08
2019-06-08T11:08:12.969Z,19.38
2019-06-08T11:10:40.971Z,18.97
2019-06-08T11:13:14.954Z,19.80
2019-06-08T11:15:43.790Z,19.88
2019-06-08T11:18:14.046Z,20.21
2019-06-08T11:20:44.574Z,20.51
2019-06-08T11:23:15.339Z,20.81
2019-06-08T11:25:45.813Z,20.67
2019-06-08T11:28:18.554Z,20.35
2019-06-08T11:30:48.954Z,20.36
2019-06-08T11:33:19.555Z,20.06
2019-06-08T11:35:50.357Z,19.92
2019-06-08T11:38:20.951Z,19.67
2019-06-08T11:40:51.435Z,19.30
2019-06-08T11:43:22.035Z,19.65
2019-06-08T11:45:52.757Z,19.91
2019-06-08T11:48:23.272Z,20.25
2019-06-08T11:50:53.832Z,20.03
2019-06-08T11:53:24.472Z,20.40
2019-06-08T11:55:58.604Z,20.19
2019-06-08T11:58:30.756Z,20.28
2019-06-08T12:01:05.477Z,20.34
2019-06-08T12:03:38.763Z,20.44
2019-06-08T12:06:12.921Z,20.62
2019-06-08T12:08:41.480Z,20.22
2019-06-08T12:11:17.275Z,20.33
2019-06-08T12:13:44.494Z,20.58
2019-06-08T12:16:19.545Z,20.92
2019-06-08T12:18:49.168Z,21.23
2019-06-08T12:21:20.130Z,21.01
2019-06-08T12:23:50.735Z,20.88
2019-06-08T12:26:21.508Z,20.95
2019-06-08T12:28:51.942Z,20.94
2019-06-08T12:31:22.897Z,21.26
2019-06-08T12:33:53.552Z,21.36
2019-06-08T12:36:24.462Z,21.14
2019-06-08T12:38:55.544Z,21.38
2019-06-08T12:41:28.922Z,20.19
2019-06-08T12:43:58.956Z,20.21
2019-06-08T12:46:29.548Z,20.64
2019-06-08T12:49:00.466Z,20.76
2019-06-08T12:51:31.316Z,20.62
2019-06-08T12:54:01.848Z,20.57
2019-06-08T12:56:32.399Z,20.69
2019-06-08T12:59:03.121Z,20.65
2019-06-08T13:01:33.843Z,20.72
2019-06-08T13:04:04.680Z,21.06
2019-06-08T13:06:35.097Z,21.60
2019-06-08T13:09:08.984Z,21.73
2019-06-08T13:11:38.643Z,21.30
2019-06-08T13:14:10.261Z,21.27
2019-06-08T13:16:41.686Z,21.74
2019-06-08T13:19:13.129Z,21.88
2019-06-08T13:21:44.299Z,22.26
2019-06-08T13:24:15.625Z,21.51
2019-06-08T13:26:50.395Z,21.66
2019-06-08T13:29:20.156Z,21.60
2019-06-08T13:31:50.548Z,22.06
2019-06-08T13:34:24.283Z,22.12
2019-06-08T13:36:53.428Z,22.51
2019-06-08T13:39:24.027Z,22.42
2019-06-08T13:41:54.436Z,22.28
2019-06-08T13:44:27.658Z,22.75
2019-06-08T13:46:57.907Z,22.83
2019-06-08T13:49:30.778Z,22.67
2019-06-08T13:52:01.030Z,22.92
2019-06-08T13:54:32.000Z,23.23
2019-06-08T13:57:02.796Z,23.32
2019-06-08T13:59:33.287Z,23.47
2019-06-08T14:02:04.477Z,23.26
2019-06-08T14:04:39.436Z,23.38
2019-06-08T14:07:08.350Z,23.83
2019-06-08T14:09:38.805Z,23.71
2019-06-08T14:12:09.643Z,23.93
2019-06-08T14:14:40.127Z,24.36
2019-06-08T14:17:10.736Z,24.93
2019-06-08T14:19:41.390Z,25.26
2019-06-08T14:22:11.977Z,24.36
2019-06-08T14:24:42.675Z,25.60
2019-06-08T14:27:13.494Z,26.54
2019-06-08T14:29:44.024Z,26.85
2019-06-08T14:32:17.555Z,27.10
2019-06-08T14:34:47.986Z,27.04
2019-06-08T14:37:17.994Z,26.48
2019-06-08T14:39:48.816Z,25.84
2019-06-08T14:42:24.643Z,25.86
2019-06-08T14:44:52.027Z,25.06
2019-06-08T14:47:22.791Z,23.54
2019-06-08T14:49:53.109Z,23.24
2019-06-08T14:52:25.262Z,22.94
2019-06-08T14:54:58.506Z,22.62
2019-06-08T14:57:28.249Z,22.98
2019-06-08T15:00:00.084Z,22.68
2019-06-08T15:02:31.485Z,22.87
2019-06-08T15:05:02.168Z,23.54
2019-06-08T15:07:32.889Z,24.68
2019-06-08T15:10:03.326Z,25.52
2019-06-08T15:12:33.737Z,26.10
2019-06-08T15:15:04.652Z,26.99
2019-06-08T15:17:35.182Z,26.59
2019-06-08T15:20:08.808Z,26.94
2019-06-08T15:22:39.334Z,27.47
2019-06-08T15:25:11.063Z,27.37
2019-06-08T15:27:42.370Z,27.72
2019-06-08T15:30:17.463Z,28.21
2019-06-08T15:32:48.079Z,28.66
2019-06-08T15:35:18.757Z,28.79
2019-06-08T15:37:48.465Z,27.19
2019-06-08T15:40:19.196Z,26.03
2019-06-08T15:42:49.953Z,26.14
2019-06-08T15:45:21.867Z,27.39
2019-06-08T15:47:52.552Z,27.55
2019-06-08T15:50:24.174Z,26.71
2019-06-08T15:52:54.129Z,26.81
2019-06-08T15:55:24.958Z,26.88
2019-06-08T15:57:55.558Z,26.44
2019-06-08T16:00:28.359Z,26.56
2019-06-08T16:02:58.384Z,25.77
2019-06-08T16:05:29.618Z,25.24
2019-06-08T16:08:00.242Z,25.35
2019-06-08T16:10:30.608Z,25.92
2019-06-08T16:13:01.572Z,26.45
2019-06-08T16:15:33.361Z,26.95
2019-06-08T16:18:03.070Z,26.71
2019-06-08T16:20:33.678Z,27.62
2019-06-08T16:23:04.033Z,27.42
2019-06-08T16:25:38.374Z,27.12
2019-06-08T16:28:06.885Z,27.84
2019-06-08T16:30:37.269Z,27.64
2019-06-08T16:33:07.629Z,27.97
2019-06-08T16:35:38.055Z,28.07
2019-06-08T16:38:08.437Z,28.32
2019-06-08T16:40:38.787Z,28.52
2019-06-08T16:43:09.630Z,28.66
2019-06-08T16:45:40.491Z,28.13
2019-06-08T16:48:11.792Z,28.09
2019-06-08T16:50:42.276Z,28.00
2019-06-08T16:53:13.052Z,28.78
2019-06-08T16:55:43.837Z,29.29
2019-06-08T16:58:14.242Z,29.75
2019-06-08T17:00:44.683Z,29.09
2019-06-08T17:03:14.866Z,29.38
2019-06-08T17:05:45.458Z,28.92
2019-06-08T17:08:15.649Z,28.40
2019-06-08T17:10:46.135Z,28.59
2019-06-08T17:13:16.769Z,28.07
2019-06-08T17:15:47.814Z,27.86
2019-06-08T17:18:18.302Z,27.81
2019-06-08T17:20:48.895Z,28.02
2019-06-08T17:23:19.907Z,27.91
2019-06-08T17:25:50.486Z,27.63
2019-06-08T17:28:20.869Z,27.63
2019-06-08T17:30:51.476Z,27.40
2019-06-08T17:33:22.023Z,27.65
2019-06-08T17:35:52.388Z,28.01
2019-06-08T17:38:22.914Z,27.61
2019-06-08T17:40:53.470Z,28.07
2019-06-08T17:43:24.429Z,27.97
2019-06-08T17:45:54.820Z,27.58
2019-06-08T17:48:25.201Z,26.80
2019-06-08T17:50:55.752Z,26.57
2019-06-08T17:53:26.609Z,26.74
2019-06-08T17:55:56.874Z,26.71
2019-06-08T17:58:27.321Z,26.66
2019-06-08T18:00:57.928Z,26.59
2019-06-08T18:03:28.409Z,26.43
2019-06-08T18:05:59.249Z,26.12
2019-06-08T18:08:29.972Z,26.06
2019-06-08T18:11:00.686Z,26.23
2019-06-08T18:13:31.531Z,26.20
2019-06-08T18:16:02.011Z,25.91
2019-06-08T18:18:32.619Z,25.94
2019-06-08T18:21:03.273Z,25.80
2019-06-08T18:23:34.287Z,25.32
2019-06-08T18:26:04.928Z,25.07
2019-06-08T18:28:37.122Z,24.01
2019-06-08T18:31:07.827Z,23.66
2019-06-08T18:33:41.210Z,23.47
2019-06-08T18:36:10.712Z,22.71
2019-06-08T18:38:42.955Z,22.56
2019-06-08T18:41:13.548Z,22.34
2019-06-08T18:43:45.413Z,21.83
2019-06-08T18:46:17.963Z,21.52
2019-06-08T18:48:49.335Z,21.45
2019-06-08T18:51:20.155Z,21.43
2019-06-08T18:54:07.394Z,21.34
2019-06-08T18:56:22.969Z,21.29
2019-06-08T18:58:53.863Z,21.09
2019-06-08T19:01:24.607Z,20.96
2019-06-08T19:03:57.750Z,20.53
2019-06-08T19:06:27.967Z,20.50
2019-06-08T19:08:58.977Z,20.33
2019-06-08T19:11:29.566Z,20.41
2019-06-08T19:14:00.158Z,20.38
2019-06-08T19:16:30.856Z,20.40
2019-06-08T19:19:01.882Z,20.34
2019-06-08T19:21:32.536Z,20.28
2019-06-08T19:24:03.055Z,20.25
2019-06-08T19:26:33.556Z,20.17
2019-06-08T19:29:03.980Z,20.02
2019-06-08T19:31:34.541Z,19.86
2019-06-08T19:34:07.505Z,19.56
2019-06-08T19:36:39.986Z,19.35
2019-06-08T19:39:10.113Z,19.12
2019-06-08T19:41:41.506Z,18.89
2019-06-08T19:44:12.210Z,18.68
2019-06-08T19:46:43.042Z,18.44
2019-06-08T19:49:13.413Z,18.29
2019-06-08T19:51:45.010Z,18.15
2019-06-08T19:54:15.100Z,18.04
2019-06-08T19:56:52.139Z,17.90
2019-06-08T19:59:18.254Z,17.80
2019-06-08T20:01:56.031Z,17.65
2019-06-08T20:04:20.861Z,17.54
2019-06-08T20:06:50.872Z,17.47
2019-06-08T20:09:21.336Z,17.38
2019-06-08T20:11:55.458Z,17.30
2019-06-08T20:14:23.252Z,17.20
2019-06-08T20:16:53.236Z,17.06
2019-06-08T20:19:23.360Z,16.98
2019-06-08T20:21:53.538Z,16.93
2019-06-08T20:24:23.490Z,16.88
2019-06-08T20:26:54.796Z,16.74
2019-06-08T20:29:27.908Z,16.77
2019-06-08T20:31:58.242Z,16.72
2019-06-08T20:34:27.811Z,16.65
2019-06-08T20:37:01.293Z,16.51
2019-06-08T20:39:29.374Z,16.41
2019-06-08T20:41:59.254Z,16.33
2019-06-08T20:44:30.289Z,16.28
2019-06-08T20:47:00.336Z,16.18
2019-06-08T20:49:30.240Z,16.10
2019-06-08T20:52:00.575Z,15.97
2019-06-08T20:54:30.586Z,15.92
2019-06-08T20:57:00.583Z,15.91
2019-06-08T20:59:33.995Z,15.86
2019-06-08T21:02:02.181Z,15.83
2019-06-08T21:04:32.155Z,15.78
2019-06-08T21:07:02.308Z,15.75
2019-06-08T21:09:32.156Z,15.75
2019-06-08T21:12:02.289Z,15.71
2019-06-08T21:14:32.156Z,15.64
2019-06-08T21:17:02.182Z,15.70
2019-06-08T21:19:32.160Z,15.68
2019-06-08T21:22:02.074Z,15.61
2019-06-08T21:24:32.043Z,15.56
2019-06-08T21:27:01.931Z,15.52
2019-06-08T21:29:46.948Z,15.45
2019-06-08T21:32:03.489Z,15.45
2019-06-08T21:34:33.373Z,15.48
2019-06-08T21:37:03.387Z,15.50
2019-06-08T21:39:36.087Z,15.52
2019-06-08T21:42:04.814Z,15.41
2019-06-08T21:44:37.085Z,15.34
2019-06-08T21:47:07.873Z,15.31
2019-06-08T21:49:38.552Z,15.25
2019-06-08T21:52:08.788Z,15.19
2019-06-08T21:54:38.668Z,15.20
2019-06-08T21:57:09.681Z,15.11
2019-06-08T21:59:39.869Z,15.09
2019-06-08T22:02:10.475Z,15.05
2019-06-08T22:04:40.360Z,15.09
2019-06-08T22:07:10.353Z,15.14
2019-06-08T22:09:40.354Z,15.12
2019-06-08T22:12:10.372Z,15.14
2019-06-08T22:14:40.243Z,15.17
2019-06-08T22:17:10.301Z,15.19
2019-06-08T22:19:40.257Z,15.13
2019-06-08T22:22:10.459Z,15.09
2019-06-08T22:24:40.376Z,15.09
2019-06-08T22:27:10.273Z,15.11
2019-06-08T22:29:40.131Z,15.06
2019-06-08T22:32:10.282Z,15.06
2019-06-08T22:34:40.133Z,15.05
2019-06-08T22:37:10.287Z,15.02
2019-06-08T22:39:40.136Z,14.98
2019-06-08T22:42:10.047Z,14.92
2019-06-08T22:44:39.900Z,14.92
2019-06-08T22:47:09.782Z,14.81
2019-06-08T22:49:39.675Z,14.83
2019-06-08T22:52:09.543Z,14.83
2019-06-08T22:54:39.428Z,14.74
2019-06-08T22:57:09.450Z,14.59
2019-06-08T22:59:39.434Z,14.62
2019-06-08T23:02:09.549Z,14.64
2019-06-08T23:04:39.450Z,14.59
2019-06-08T23:07:17.739Z,14.57
2019-06-08T23:09:40.877Z,14.48
2019-06-08T23:12:10.803Z,14.39
2019-06-08T23:14:40.780Z,14.33
2019-06-08T23:17:10.646Z,14.29
2019-06-08T23:19:40.645Z,14.30
2019-06-08T23:22:10.527Z,14.24
2019-06-08T23:24:40.407Z,14.14
2019-06-08T23:27:10.313Z,14.07
2019-06-08T23:29:40.166Z,13.97
2019-06-08T23:32:11.757Z,13.90
2019-06-08T23:34:41.615Z,13.79
2019-06-08T23:37:12.831Z,13.72
2019-06-08T23:39:43.060Z,13.71
2019-06-08T23:42:13.182Z,13.74
2019-06-08T23:44:43.175Z,13.70
2019-06-08T23:47:13.064Z,13.70
2019-06-08T23:49:43.183Z,13.64
2019-06-08T23:52:13.064Z,13.61
2019-06-08T23:54:43.189Z,13.56
2019-06-08T23:57:13.077Z,13.55
2019-06-08T23:59:47.818Z,13.51
